Time;durP1;ratioP1;P1;durP2;ratioP2;P2;SDS_P1;SDS_P2;PMS_P1;PMS_P2;Temp;Humidity;BMP_temperature;BMP_pressure;BME280_temperature;BME280_humidity;BME280_pressure;Samples;Min_cycle;Max_cycle;Signal;HPM_P1;HPM_P2
2024/01/31 00:00:38;;;;;;;0.50;0.10;;;9.80;99.90;;;;;;5072707;28;20445;-75
2024/01/31 00:03:07;;;;;;;0.50;0.10;;;9.80;99.90;;;;;;5071771;28;20815;-76
2024/01/31 00:05:35;;;;;;;0.50;0.10;;;9.90;99.90;;;;;;5074252;28;20760;-76
2024/01/31 00:08:03;;;;;;;0.50;0.10;;;9.90;99.90;;;;;;5073606;28;20514;-76
2024/01/31 00:10:31;;;;;;;0.50;0.10;;;9.90;99.90;;;;;;5075685;28;20446;-76
2024/01/31 00:13:00;;;;;;;0.50;0.10;;;9.90;99.90;;;;;;5070964;28;20520;-76
2024/01/31 00:15:28;;;;;;;0.50;0.10;;;9.90;99.90;;;;;;5074527;28;20594;-75
2024/01/31 00:17:56;;;;;;;0.50;0.10;;;9.90;99.90;;;;;;5075502;28;20503;-76
2024/01/31 00:20:25;;;;;;;0.50;0.10;;;9.90;99.90;;;;;;5075213;28;20451;-76
2024/01/31 00:22:52;;;;;;;0.50;0.10;;;10.00;99.90;;;;;;5069676;28;20525;-76
2024/01/31 00:25:20;;;;;;;0.50;0.10;;;10.00;99.90;;;;;;5069670;28;20495;-77
2024/01/31 00:27:49;;;;;;;0.50;0.10;;;10.00;99.90;;;;;;5081501;28;20472;-75
2024/01/31 00:30:18;;;;;;;0.50;0.10;;;10.00;99.90;;;;;;5074983;28;20552;-75
2024/01/31 00:32:46;;;;;;;0.50;0.10;;;10.00;99.90;;;;;;5074414;28;20539;-75
2024/01/31 00:35:15;;;;;;;0.50;0.10;;;;;;;;;;5074507;28;20487;-76
2024/01/31 00:37:43;;;;;;;0.50;0.10;;;9.90;99.90;;;;;;5071578;28;20830;-76
2024/01/31 00:40:11;;;;;;;4.40;4.00;;;10.00;99.90;;;;;;5070236;28;20941;-76
2024/01/31 00:42:41;;;;;;;0.50;0.10;;;10.00;99.90;;;;;;5074342;28;20546;-76
2024/01/31 00:45:11;;;;;;;0.50;0.10;;;10.00;99.90;;;;;;5070328;28;20467;-76
2024/01/31 00:47:40;;;;;;;0.50;0.10;;;10.00;99.90;;;;;;5080324;28;20479;-76
2024/01/31 00:50:09;;;;;;;0.50;0.10;;;10.00;99.90;;;;;;5074333;28;20506;-75
2024/01/31 00:52:37;;;;;;;0.50;0.10;;;10.10;99.90;;;;;;5074424;28;20448;-76
2024/01/31 00:55:06;;;;;;;0.50;0.10;;;10.00;99.90;;;;;;5074573;28;20913;-75
2024/01/31 00:57:34;;;;;;;0.50;0.10;;;10.00;99.90;;;;;;5074468;28;20476;-75
2024/01/31 01:00:04;;;;;;;0.50;0.10;;;10.00;99.90;;;;;;5074852;28;20547;-76
2024/01/31 01:02:35;;;;;;;0.50;0.20;;;10.00;99.90;;;;;;5072616;28;20470;-76
2024/01/31 01:05:05;;;;;;;0.60;0.50;;;10.00;99.90;;;;;;5079169;28;20439;-76
2024/01/31 01:07:33;;;;;;;0.50;0.10;;;10.00;99.90;;;;;;5072956;28;20467;-74
2024/01/31 01:10:01;;;;;;;0.50;0.10;;;10.00;99.90;;;;;;5074846;28;20453;-74
2024/01/31 01:12:29;;;;;;;0.50;0.10;;;9.90;99.90;;;;;;5074002;28;20447;-77
2024/01/31 01:14:57;;;;;;;0.50;0.10;;;9.90;99.90;;;;;;5067122;28;20449;-75
2024/01/31 01:17:39;;;;;;;0.50;0.10;;;9.90;99.90;;;;;;5067431;28;20505;-75
2024/01/31 01:20:09;;;;;;;0.50;0.10;;;9.90;99.90;;;;;;5075104;28;20448;-76
2024/01/31 01:22:38;;;;;;;0.50;0.10;;;9.90;99.90;;;;;;5076541;28;20443;-76
2024/01/31 01:25:07;;;;;;;0.50;0.10;;;9.90;99.90;;;;;;5073884;28;20539;-76
2024/01/31 01:27:35;;;;;;;0.50;0.10;;;9.90;99.90;;;;;;5084189;28;21005;-74
2024/01/31 01:30:03;;;;;;;0.50;0.20;;;9.90;99.90;;;;;;5076491;28;20450;-76
2024/01/31 01:32:31;;;;;;;0.50;0.10;;;10.00;99.90;;;;;;5081341;28;20452;-74
2024/01/31 01:34:59;;;;;;;0.50;0.10;;;10.00;99.90;;;;;;5084518;28;20433;-75
2024/01/31 01:37:28;;;;;;;0.50;0.10;;;10.00;99.90;;;;;;5085796;28;20488;-75
2024/01/31 01:39:56;;;;;;;0.50;0.10;;;10.00;99.90;;;;;;5085778;28;20451;-75
2024/01/31 01:42:24;;;;;;;0.50;0.10;;;10.00;99.90;;;;;;5079824;28;20488;-76
2024/01/31 01:44:52;;;;;;;0.50;0.10;;;10.00;99.90;;;;;;5080200;28;20529;-76
2024/01/31 01:47:20;;;;;;;0.50;0.10;;;9.90;99.90;;;;;;5077627;28;20476;-75
2024/01/31 01:49:49;;;;;;;0.50;0.10;;;10.00;99.90;;;;;;5077909;28;20532;-75
2024/01/31 01:52:17;;;;;;;0.50;0.10;;;10.00;99.90;;;;;;5080725;28;20441;-75
2024/01/31 01:54:47;;;;;;;0.50;0.10;;;10.00;99.90;;;;;;5079472;28;20441;-76
2024/01/31 01:57:15;;;;;;;0.50;0.10;;;10.00;99.90;;;;;;5078588;28;20605;-76
2024/01/31 01:59:43;;;;;;;0.50;0.10;;;10.10;99.90;;;;;;5071057;28;20526;-76
2024/01/31 02:02:12;;;;;;;0.50;0.10;;;10.10;99.90;;;;;;5073335;28;20834;-76
2024/01/31 02:04:40;;;;;;;0.50;0.10;;;10.00;99.90;;;;;;5073033;28;20478;-76
2024/01/31 02:07:08;;;;;;;0.50;0.10;;;10.00;99.90;;;;;;5072479;28;20826;-77
2024/01/31 02:09:36;;;;;;;0.50;0.10;;;10.00;99.90;;;;;;5072032;28;20535;-76
2024/01/31 02:12:07;;;;;;;0.50;0.10;;;10.00;99.90;;;;;;5072429;28;21003;-77
2024/01/31 02:14:37;;;;;;;0.50;0.10;;;10.00;99.90;;;;;;5072235;28;21002;-76
2024/01/31 02:17:05;;;;;;;0.50;0.10;;;10.00;99.90;;;;;;5068014;28;20566;-77
2024/01/31 02:19:33;;;;;;;0.50;0.10;;;10.00;99.90;;;;;;5070071;28;20448;-76
2024/01/31 02:22:03;;;;;;;0.50;0.10;;;10.00;99.90;;;;;;5072351;28;20455;-77
2024/01/31 02:24:32;;;;;;;0.50;0.10;;;10.00;99.90;;;;;;5069636;28;20484;-77
2024/01/31 02:27:00;;;;;;;0.50;0.10;;;10.10;99.90;;;;;;5066594;28;20545;-75
2024/01/31 02:29:28;;;;;;;0.50;0.10;;;10.00;99.90;;;;;;5072454;28;20448;-74
2024/01/31 02:31:55;;;;;;;0.50;0.10;;;10.00;99.90;;;;;;5074554;28;20475;-75
2024/01/31 02:34:23;;;;;;;0.50;0.10;;;10.00;99.90;;;;;;5072733;28;20535;-76
2024/01/31 02:36:51;;;;;;;0.50;0.10;;;10.00;99.90;;;;;;5065570;28;20542;-76
2024/01/31 02:39:20;;;;;;;0.50;0.10;;;10.00;99.90;;;;;;5067845;28;20477;-75
2024/01/31 02:41:49;;;;;;;0.50;0.10;;;9.90;99.90;;;;;;5072131;28;20451;-75
2024/01/31 02:44:17;;;;;;;0.50;0.10;;;9.90;99.90;;;;;;5072340;28;20459;-77
2024/01/31 02:46:45;;;;;;;0.50;0.10;;;10.00;99.90;;;;;;5069534;28;20457;-75
2024/01/31 02:49:13;;;;;;;0.50;0.10;;;9.90;99.90;;;;;;5066950;28;20453;-75
2024/01/31 02:51:41;;;;;;;0.50;0.10;;;9.90;99.90;;;;;;5069952;28;20461;-76
2024/01/31 02:54:08;;;;;;;0.50;0.10;;;9.90;99.90;;;;;;5071854;28;20536;-76
2024/01/31 02:56:36;;;;;;;0.50;0.10;;;9.90;99.90;;;;;;5070147;28;20498;-75
2024/01/31 02:59:05;;;;;;;0.50;0.10;;;9.80;99.90;;;;;;5065506;28;20445;-75
2024/01/31 03:01:36;;;;;;;0.50;0.10;;;9.90;99.90;;;;;;5071911;28;20452;-76
2024/01/31 03:04:04;;;;;;;0.50;0.10;;;9.90;99.90;;;;;;5066625;28;20544;-76
2024/01/31 03:06:32;;;;;;;0.50;0.10;;;9.80;99.90;;;;;;5059201;28;20828;-76
2024/01/31 03:09:00;;;;;;;0.50;0.20;;;9.80;99.90;;;;;;5068400;28;20472;-76
2024/01/31 03:11:28;;;;;;;0.50;0.10;;;9.80;99.90;;;;;;5071480;28;20493;-75
2024/01/31 03:13:56;;;;;;;0.50;0.10;;;9.70;99.90;;;;;;5072123;28;20456;-76
2024/01/31 03:16:25;;;;;;;0.50;0.10;;;9.70;99.90;;;;;;5071567;28;20504;-76
2024/01/31 03:18:56;;;;;;;0.50;0.10;;;9.80;99.90;;;;;;5071671;28;20450;-76
2024/01/31 03:21:24;;;;;;;0.50;0.10;;;9.80;99.90;;;;;;5070341;28;20478;-76
2024/01/31 03:23:52;;;;;;;0.50;0.10;;;9.80;99.90;;;;;;5071089;28;20531;-76
2024/01/31 03:26:20;;;;;;;0.50;0.10;;;9.80;99.90;;;;;;5071349;28;20464;-75
2024/01/31 03:28:47;;;;;;;0.50;0.10;;;9.80;99.90;;;;;;5071956;28;20448;-75
2024/01/31 03:31:16;;;;;;;0.50;0.10;;;9.80;99.90;;;;;;5071500;28;20456;-75
2024/01/31 03:33:45;;;;;;;0.50;0.10;;;9.80;99.90;;;;;;5071429;28;20444;-75
2024/01/31 03:36:13;;;;;;;0.50;0.10;;;9.70;99.90;;;;;;5066099;28;20992;-75
2024/01/31 03:38:41;;;;;;;0.50;0.10;;;;;;;;;;5069928;28;20563;-75
2024/01/31 03:41:10;;;;;;;0.50;0.10;;;9.70;99.90;;;;;;5084120;28;20436;-73
2024/01/31 03:43:37;;;;;;;0.50;0.10;;;9.60;99.90;;;;;;5087276;28;20454;-74
2024/01/31 03:46:06;;;;;;;0.50;0.10;;;9.60;99.90;;;;;;5079131;28;20578;-75
2024/01/31 03:48:34;;;;;;;2.20;1.73;;;9.60;99.90;;;;;;5088120;28;20472;-75
2024/01/31 03:51:04;;;;;;;0.50;0.10;;;9.60;99.90;;;;;;5088105;28;20448;-76
2024/01/31 03:53:32;;;;;;;0.53;0.27;;;9.60;99.90;;;;;;5087856;28;20479;-74
2024/01/31 03:56:00;;;;;;;0.50;0.20;;;9.60;99.90;;;;;;5080038;28;20449;-75
2024/01/31 03:58:29;;;;;;;0.50;0.10;;;9.60;99.90;;;;;;5075291;28;20549;-75
2024/01/31 04:00:57;;;;;;;0.50;0.10;;;9.50;99.90;;;;;;5076305;28;20471;-75
2024/01/31 04:03:25;;;;;;;0.50;0.20;;;9.50;99.90;;;;;;5075580;28;20487;-76
2024/01/31 04:05:55;;;;;;;0.50;0.10;;;9.50;99.90;;;;;;5075861;28;20472;-75
2024/01/31 04:08:24;;;;;;;0.50;0.10;;;9.50;99.90;;;;;;5068103;28;20967;-75
2024/01/31 04:10:53;;;;;;;0.50;0.10;;;9.50;99.90;;;;;;5075079;28;20848;-75
2024/01/31 04:13:21;;;;;;;0.50;0.10;;;9.40;99.90;;;;;;5072992;28;20508;-76
2024/01/31 04:15:48;;;;;;;0.50;0.10;;;9.50;99.90;;;;;;5079111;28;20457;-75
2024/01/31 04:18:16;;;;;;;0.50;0.10;;;9.50;99.90;;;;;;5075237;28;20530;-76
2024/01/31 04:20:44;;;;;;;0.50;0.10;;;9.40;99.90;;;;;;5074951;28;20450;-76
2024/01/31 04:23:14;;;;;;;0.50;0.10;;;9.40;99.90;;;;;;5074901;28;20451;-76
2024/01/31 04:25:43;;;;;;;0.50;0.10;;;9.50;99.90;;;;;;5073295;28;20526;-75
2024/01/31 04:28:13;;;;;;;0.50;0.10;;;9.50;99.90;;;;;;5066906;28;20439;-77
2024/01/31 04:30:41;;;;;;;0.50;0.10;;;9.40;99.90;;;;;;5074882;28;20457;-75
2024/01/31 04:33:09;;;;;;;0.50;0.10;;;9.40;99.90;;;;;;5070968;28;20840;-76
2024/01/31 04:35:37;;;;;;;0.50;0.10;;;9.40;99.90;;;;;;5073259;28;20525;-76
2024/01/31 04:38:05;;;;;;;0.50;0.10;;;9.40;99.90;;;;;;5074420;28;20471;-76
2024/01/31 04:40:33;;;;;;;0.60;0.40;;;9.40;99.90;;;;;;5073958;28;21035;-75
2024/01/31 04:43:03;;;;;;;0.50;0.10;;;9.40;99.90;;;;;;5074205;28;20444;-77
2024/01/31 04:45:31;;;;;;;0.50;0.20;;;9.40;99.90;;;;;;5075074;28;20852;-76
2024/01/31 04:47:58;;;;;;;0.50;0.10;;;9.30;99.90;;;;;;5071506;28;20457;-75
2024/01/31 04:50:26;;;;;;;0.50;0.10;;;9.30;99.90;;;;;;5061571;28;20599;-76
2024/01/31 04:52:54;;;;;;;0.50;0.10;;;9.30;99.90;;;;;;5072354;28;20834;-76
2024/01/31 04:55:22;;;;;;;21.07;1.30;;;9.20;99.90;;;;;;5076232;28;20526;-76
2024/01/31 04:57:50;;;;;;;0.50;0.20;;;9.10;99.90;;;;;;5074323;28;20486;-76
2024/01/31 05:00:23;;;;;;;0.50;0.10;;;9.10;99.90;;;;;;5074356;28;20538;-77
2024/01/31 05:02:51;;;;;;;0.50;0.10;;;5.60;99.90;;;;;;5070266;28;20618;-75
2024/01/31 05:05:19;;;;;;;0.50;0.10;;;9.10;99.90;;;;;;5072952;28;21017;-76
2024/01/31 05:07:47;;;;;;;0.50;0.10;;;9.10;99.90;;;;;;5073763;28;20875;-77
2024/01/31 05:10:15;;;;;;;0.50;0.10;;;9.10;99.90;;;;;;5072275;28;20460;-78
2024/01/31 05:12:43;;;;;;;0.50;0.10;;;9.10;99.90;;;;;;5073390;28;20493;-75
2024/01/31 05:15:11;;;;;;;0.50;0.10;;;9.10;99.90;;;;;;5073154;28;20897;-76
2024/01/31 05:17:41;;;;;;;0.50;0.10;;;9.10;99.90;;;;;;5073407;28;20490;-74
2024/01/31 05:20:09;;;;;;;0.50;0.10;;;9.10;99.90;;;;;;5066286;28;20445;-74
2024/01/31 05:22:38;;;;;;;0.50;0.10;;;9.10;99.90;;;;;;5071695;28;20468;-77
2024/01/31 05:25:07;;;;;;;0.50;0.10;;;9.10;99.90;;;;;;5074710;28;20455;-74
2024/01/31 05:27:35;;;;;;;0.50;0.10;;;9.10;99.90;;;;;;5069141;28;20673;-76
2024/01/31 05:30:04;;;;;;;0.50;0.10;;;9.10;99.90;;;;;;5071003;28;20441;-75
2024/01/31 05:32:32;;;;;;;0.50;0.10;;;9.10;99.90;;;;;;5069666;28;20442;-75
2024/01/31 05:35:02;;;;;;;0.50;0.10;;;9.10;99.90;;;;;;5065989;28;21021;-76
2024/01/31 05:37:31;;;;;;;0.50;0.10;;;9.00;99.90;;;;;;5073444;28;20542;-76
2024/01/31 05:39:58;;;;;;;0.50;0.10;;;9.00;99.90;;;;;;5072673;28;20578;-75
2024/01/31 05:42:26;;;;;;;0.50;0.10;;;9.00;99.90;;;;;;5073671;28;20442;-76
2024/01/31 05:44:54;;;;;;;0.50;0.10;;;9.00;99.90;;;;;;5074138;28;20514;-76
2024/01/31 05:47:22;;;;;;;0.50;0.10;;;8.90;99.90;;;;;;5074872;28;20472;-76
2024/01/31 05:49:50;;;;;;;0.50;0.10;;;8.90;99.90;;;;;;5072296;28;20474;-76
2024/01/31 05:52:19;;;;;;;0.50;0.10;;;8.80;99.90;;;;;;5072267;28;20441;-76
2024/01/31 05:54:47;;;;;;;0.50;0.10;;;8.80;99.90;;;;;;5064779;28;20448;-75
2024/01/31 05:57:15;;;;;;;0.50;0.10;;;8.80;99.90;;;;;;5071912;28;20503;-76
2024/01/31 05:59:43;;;;;;;0.50;0.10;;;8.70;99.90;;;;;;5069646;28;20492;-76
2024/01/31 06:02:11;;;;;;;0.50;0.10;;;8.70;99.90;;;;;;5071481;28;20444;-76
2024/01/31 06:04:40;;;;;;;0.50;0.10;;;8.70;99.90;;;;;;5072236;28;20443;-75
2024/01/31 06:07:09;;;;;;;0.50;0.10;;;8.70;99.90;;;;;;5072144;28;20492;-76
2024/01/31 06:09:39;;;;;;;0.50;0.10;;;8.60;99.90;;;;;;5071851;28;20877;-76
2024/01/31 06:12:07;;;;;;;0.50;0.10;;;8.60;99.90;;;;;;5071824;28;20469;-75
2024/01/31 06:14:36;;;;;;;0.50;0.10;;;8.60;99.90;;;;;;5072616;28;20477;-76
2024/01/31 06:17:05;;;;;;;0.50;0.10;;;8.50;99.90;;;;;;5072838;28;20622;-80
2024/01/31 06:19:32;;;;;;;0.50;0.10;;;8.50;99.90;;;;;;5070798;28;20937;-76
2024/01/31 06:22:00;;;;;;;0.50;0.10;;;8.50;99.90;;;;;;5078430;28;20455;-76
2024/01/31 06:24:28;;;;;;;0.50;0.10;;;8.40;99.90;;;;;;5065384;28;20451;-76
2024/01/31 06:26:57;;;;;;;0.50;0.10;;;8.40;99.90;;;;;;5063222;28;20521;-77
2024/01/31 06:29:25;;;;;;;0.50;0.10;;;8.30;99.90;;;;;;5071632;28;20895;-76
2024/01/31 06:31:59;;;;;;;0.50;0.10;;;8.30;99.90;;;;;;5071453;28;20444;-76
2024/01/31 06:34:27;;;;;;;0.50;0.10;;;8.20;99.90;;;;;;5071182;28;20462;-76
2024/01/31 06:36:55;;;;;;;0.50;0.10;;;8.20;99.90;;;;;;5063137;28;20510;-76
2024/01/31 06:39:26;;;;;;;0.50;0.10;;;8.20;99.90;;;;;;5069923;28;21015;-77
2024/01/31 06:41:54;;;;;;;0.50;0.10;;;8.20;99.90;;;;;;5068150;28;20453;-75
2024/01/31 06:44:23;;;;;;;0.50;0.10;;;8.20;99.90;;;;;;5077935;28;20467;-76
2024/01/31 06:46:50;;;;;;;0.50;0.10;;;8.10;99.90;;;;;;5069461;28;20467;-76
2024/01/31 06:49:18;;;;;;;0.50;0.10;;;8.00;99.90;;;;;;5070916;28;20447;-76
2024/01/31 06:51:46;;;;;;;0.50;0.10;;;8.00;99.90;;;;;;5070994;28;20479;-76
2024/01/31 06:54:14;;;;;;;0.50;0.10;;;8.00;99.90;;;;;;5071051;28;20532;-75
2024/01/31 06:56:42;;;;;;;0.50;0.10;;;8.10;99.90;;;;;;5064179;28;20509;-76
2024/01/31 06:59:10;;;;;;;0.50;0.10;;;8.00;99.90;;;;;;5071371;28;20584;-76
2024/01/31 07:01:39;;;;;;;0.50;0.10;;;8.00;99.90;;;;;;5067505;28;20558;-76
2024/01/31 07:04:08;;;;;;;0.50;0.10;;;8.00;99.90;;;;;;5071836;28;20779;-76
2024/01/31 07:06:36;;;;;;;0.50;0.10;;;8.00;99.90;;;;;;5071358;28;20493;-76
2024/01/31 07:09:04;;;;;;;0.50;0.10;;;8.10;99.90;;;;;;5069042;28;20435;-76
2024/01/31 07:11:32;;;;;;;0.50;0.10;;;8.20;99.90;;;;;;5066854;28;20474;-76
2024/01/31 07:14:00;;;;;;;0.50;0.10;;;8.20;99.90;;;;;;5070090;28;20492;-77
2024/01/31 07:16:28;;;;;;;0.50;0.10;;;8.20;99.90;;;;;;5071783;28;20984;-77
2024/01/31 07:18:58;;;;;;;0.50;0.10;;;;;;;;;;5069836;28;20485;-77
2024/01/31 07:21:26;;;;;;;0.50;0.10;;;8.20;99.90;;;;;;5071136;28;20472;-77
2024/01/31 07:23:54;;;;;;;0.50;0.10;;;8.30;99.90;;;;;;5069831;28;20549;-77
2024/01/31 07:26:23;;;;;;;0.50;0.10;;;8.30;99.90;;;;;;5071754;28;20556;-76
2024/01/31 07:28:51;;;;;;;0.50;0.10;;;8.40;99.90;;;;;;5070814;28;20501;-76
2024/01/31 07:31:19;;;;;;;0.50;0.10;;;8.30;99.90;;;;;;5064963;28;20534;-74
2024/01/31 07:33:48;;;;;;;0.50;0.10;;;8.30;99.90;;;;;;5066703;28;20467;-77
2024/01/31 07:36:19;;;;;;;0.50;0.10;;;8.30;99.90;;;;;;5066096;28;20471;-77
2024/01/31 07:38:47;;;;;;;0.50;0.10;;;8.40;99.90;;;;;;5063780;28;20818;-76
2024/01/31 07:41:15;;;;;;;0.50;0.10;;;8.40;99.90;;;;;;5066206;28;20477;-76
2024/01/31 07:43:43;;;;;;;0.50;0.10;;;8.40;99.90;;;;;;5067064;28;20979;-76
2024/01/31 07:46:11;;;;;;;0.50;0.10;;;8.40;99.90;;;;;;5069296;28;20466;-76
2024/01/31 07:48:39;;;;;;;0.50;0.10;;;8.40;99.90;;;;;;5070757;28;20476;-74
2024/01/31 07:51:07;;;;;;;0.50;0.10;;;8.40;99.90;;;;;;5070868;28;20439;-74
2024/01/31 07:53:37;;;;;;;0.50;0.10;;;8.50;99.90;;;;;;5066565;28;20548;-75
2024/01/31 07:56:06;;;;;;;0.50;0.10;;;8.40;99.90;;;;;;5071432;28;20558;-76
2024/01/31 07:58:34;;;;;;;0.50;0.10;;;8.60;99.90;;;;;;5070463;28;20462;-75
2024/01/31 08:01:02;;;;;;;0.50;0.10;;;8.50;99.90;;;;;;5062823;28;20486;-76
2024/01/31 08:03:30;;;;;;;0.50;0.10;;;8.50;99.90;;;;;;5070882;28;20453;-75
2024/01/31 08:05:59;;;;;;;16.73;15.87;;;8.40;99.90;;;;;;5069552;28;20556;-75
2024/01/31 08:08:28;;;;;;;0.50;0.10;;;8.50;99.90;;;;;;5069481;28;20454;-76
2024/01/31 08:10:58;;;;;;;0.50;0.10;;;8.50;99.90;;;;;;5069750;28;20442;-76
2024/01/31 08:13:26;;;;;;;0.50;0.10;;;8.50;99.90;;;;;;5069687;28;20443;-77
2024/01/31 08:15:54;;;;;;;0.50;0.10;;;8.50;99.90;;;;;;5070129;28;20459;-77
2024/01/31 08:18:22;;;;;;;0.50;0.10;;;8.60;99.90;;;;;;5070292;28;20535;-76
2024/01/31 08:20:50;;;;;;;0.50;0.10;;;;;;;;;;5070624;28;20569;-76
2024/01/31 08:23:18;;;;;;;0.50;0.10;;;8.60;99.90;;;;;;5065181;28;20503;-75
2024/01/31 08:25:45;;;;;;;0.50;0.10;;;8.70;99.90;;;;;;5064800;28;20462;-76
2024/01/31 08:28:15;;;;;;;0.50;0.10;;;8.70;99.90;;;;;;5067374;28;20468;-76
2024/01/31 08:30:43;;;;;;;0.50;0.10;;;8.70;99.90;;;;;;5072038;28;20991;-76
2024/01/31 08:33:11;;;;;;;0.50;0.10;;;8.70;99.90;;;;;;5067658;28;20444;-76
2024/01/31 08:35:39;;;;;;;0.50;0.20;;;8.80;99.90;;;;;;5074010;28;20537;-75
2024/01/31 08:38:07;;;;;;;0.50;0.10;;;;;;;;;;5065438;28;20439;-77
2024/01/31 08:40:35;;;;;;;0.50;0.10;;;8.80;99.90;;;;;;5073815;28;20558;-76
2024/01/31 08:43:03;;;;;;;0.50;0.10;;;8.80;99.90;;;;;;5072126;28;20459;-76
2024/01/31 08:45:32;;;;;;;0.50;0.10;;;8.90;99.90;;;;;;5069087;28;20451;-78
2024/01/31 08:48:00;;;;;;;0.50;0.10;;;8.90;99.90;;;;;;5074664;28;20464;-75
2024/01/31 08:50:28;;;;;;;0.50;0.10;;;9.00;99.90;;;;;;5076488;28;20437;-75
2024/01/31 08:52:56;;;;;;;0.50;0.10;;;9.00;99.90;;;;;;5077257;28;20495;-76
2024/01/31 08:55:24;;;;;;;7.00;6.37;;;9.00;99.90;;;;;;5075519;28;20509;-76
2024/01/31 08:57:53;;;;;;;0.50;0.10;;;9.50;99.90;;;;;;5075735;28;20490;-75
2024/01/31 09:00:21;;;;;;;0.50;0.10;;;9.10;99.90;;;;;;5072981;28;20537;-76
2024/01/31 09:02:50;;;;;;;0.50;0.10;;;9.10;99.90;;;;;;5076480;28;20454;-76
2024/01/31 09:05:18;;;;;;;0.50;0.10;;;9.10;99.90;;;;;;5075485;28;20812;-77
2024/01/31 09:07:46;;;;;;;0.50;0.10;;;9.10;99.90;;;;;;5067627;28;20463;-78
2024/01/31 09:10:14;;;;;;;0.50;0.10;;;9.10;99.90;;;;;;5069370;28;20452;-77
2024/01/31 09:12:42;;;;;;;0.50;0.10;;;9.20;99.90;;;;;;5073681;28;20883;-81
2024/01/31 09:15:10;;;;;;;0.50;0.10;;;9.20;99.90;;;;;;5077836;28;20453;-81
2024/01/31 09:17:38;;;;;;;0.50;0.10;;;9.20;99.90;;;;;;5079167;28;20468;-75
2024/01/31 09:20:10;;;;;;;0.50;0.10;;;9.20;99.90;;;;;;5075610;28;20568;-77
2024/01/31 09:22:40;;;;;;;0.50;0.10;;;9.20;99.90;;;;;;5065896;28;20483;-82
2024/01/31 09:25:10;;;;;;;0.50;0.20;;;9.20;99.90;;;;;;5072279;28;20972;-77
2024/01/31 09:27:38;;;;;;;0.50;0.10;;;9.10;99.90;;;;;;5073506;28;20553;-78
2024/01/31 09:30:08;;;;;;;0.50;0.10;;;9.20;99.90;;;;;;5072428;28;20452;-77
2024/01/31 09:32:36;;;;;;;0.50;0.10;;;;;;;;;;5069535;28;20839;-75
2024/01/31 09:35:05;;;;;;;0.50;0.20;;;9.20;99.90;;;;;;5075879;28;20476;-79
2024/01/31 09:37:35;;;;;;;0.50;0.10;;;9.30;99.90;;;;;;5074844;28;20483;-76
2024/01/31 09:40:03;;;;;;;0.50;0.10;;;9.30;99.90;;;;;;5070504;28;20551;-75
2024/01/31 09:42:33;;;;;;;0.50;0.20;;;9.30;99.90;;;;;;5075827;28;20584;-75
2024/01/31 09:45:03;;;;;;;0.93;0.77;;;9.30;99.90;;;;;;5067575;28;20952;-78
2024/01/31 09:47:32;;;;;;;0.50;0.10;;;9.30;99.90;;;;;;5069263;28;20888;-78
2024/01/31 09:50:02;;;;;;;0.50;0.10;;;9.40;99.90;;;;;;5075918;28;20468;-77
2024/01/31 09:52:30;;;;;;;0.50;0.10;;;9.50;99.90;;;;;;5077235;28;20445;-77
2024/01/31 09:55:01;;;;;;;0.60;0.47;;;9.60;99.90;;;;;;5075778;28;20436;-77
2024/01/31 09:57:29;;;;;;;0.50;0.10;;;9.60;99.90;;;;;;5068154;28;20524;-80
2024/01/31 09:59:57;;;;;;;0.50;0.10;;;9.60;99.90;;;;;;5069006;28;20461;-77
2024/01/31 10:02:26;;;;;;;0.50;0.10;;;9.70;99.90;;;;;;5070202;28;20522;-77
2024/01/31 10:04:55;;;;;;;0.50;0.10;;;9.80;99.90;;;;;;5070215;28;20457;-76
2024/01/31 10:07:24;;;;;;;0.50;0.10;;;9.80;99.90;;;;;;5073335;28;20480;-79
2024/01/31 10:09:55;;;;;;;0.50;0.10;;;9.80;99.90;;;;;;5078529;28;20453;-76
2024/01/31 10:12:24;;;;;;;0.50;0.10;;;9.80;99.90;;;;;;5072484;28;20477;-77
2024/01/31 10:14:55;;;;;;;0.50;0.20;;;9.90;99.90;;;;;;5083390;28;20467;-76
2024/01/31 10:17:23;;;;;;;0.50;0.10;;;9.80;99.90;;;;;;5073052;28;20483;-77
2024/01/31 10:19:52;;;;;;;0.50;0.10;;;9.90;99.90;;;;;;5072188;28;20513;-80
2024/01/31 10:22:22;;;;;;;0.50;0.10;;;9.90;99.90;;;;;;5073388;28;21019;-77
2024/01/31 10:24:51;;;;;;;0.50;0.10;;;9.90;99.90;;;;;;5071408;28;21055;-77
2024/01/31 10:27:21;;;;;;;0.50;0.10;;;10.00;99.90;;;;;;5065312;28;20960;-76
2024/01/31 10:29:53;;;;;;;0.50;0.10;;;10.00;99.90;;;;;;5079194;28;20445;-77
2024/01/31 10:32:23;;;;;;;0.50;0.10;;;10.10;99.90;;;;;;5062738;28;20980;-78
2024/01/31 10:34:52;;;;;;;0.50;0.10;;;10.10;99.90;;;;;;5075771;28;20456;-77
2024/01/31 10:37:40;;;;;;;0.50;0.20;;;10.20;99.30;;;;;;5070766;28;20480;-79
2024/01/31 10:40:11;;;;;;;0.50;0.10;;;10.40;98.60;;;;;;5074271;28;20981;-80
2024/01/31 10:42:40;;;;;;;0.50;0.10;;;;;;;;;;5074812;28;20488;-78
2024/01/31 10:45:10;;;;;;;0.80;0.33;;;10.70;95.10;;;;;;5064699;28;20449;-78
2024/01/31 10:47:38;;;;;;;3.17;2.30;;;10.80;90.30;;;;;;5071928;28;20484;-78
2024/01/31 10:50:07;;;;;;;0.50;0.10;;;10.80;78.50;;;;;;5065198;28;20461;-78
2024/01/31 10:52:38;;;;;;;0.50;0.10;;;10.70;68.30;;;;;;5066553;28;20464;-78
2024/01/31 10:55:08;;;;;;;0.50;0.10;;;10.60;63.00;;;;;;5071707;28;20475;-77
2024/01/31 10:57:37;;;;;;;0.50;0.10;;;10.50;60.10;;;;;;5066096;28;21011;-79
2024/01/31 11:00:10;;;;;;;4.20;4.00;;;10.40;55.50;;;;;;5060239;28;20460;-77
2024/01/31 11:02:39;;;;;;;0.50;0.10;;;10.30;53.20;;;;;;5072354;28;20480;-79
2024/01/31 11:05:08;;;;;;;0.50;0.20;;;10.30;52.20;;;;;;5064835;28;20552;-78
2024/01/31 11:07:45;;;;;;;0.50;0.10;;;10.20;51.70;;;;;;5067156;28;20568;-78
2024/01/31 11:10:16;;;;;;;0.50;0.13;;;10.20;53.10;;;;;;5066543;28;20486;-78
2024/01/31 11:12:44;;;;;;;0.50;0.10;;;10.10;55.10;;;;;;5077828;28;20534;-77
2024/01/31 11:15:13;;;;;;;0.50;0.10;;;;;;;;;;5069357;28;20472;-76
2024/01/31 11:17:44;;;;;;;0.60;0.40;;;10.00;61.60;;;;;;5067843;28;20473;-77
2024/01/31 11:20:13;;;;;;;0.50;0.10;;;10.00;65.60;;;;;;5069652;28;20453;-79
2024/01/31 11:22:42;;;;;;;0.50;0.10;;;10.00;68.80;;;;;;5071948;28;20519;-78
2024/01/31 11:25:10;;;;;;;0.50;0.10;;;10.00;71.30;;;;;;5071143;28;20502;-77
2024/01/31 11:27:38;;;;;;;0.50;0.10;;;10.00;71.30;;;;;;5065419;28;20520;-77
2024/01/31 11:30:07;;;;;;;0.50;0.10;;;10.00;71.40;;;;;;5069031;28;20536;-76
2024/01/31 11:32:39;;;;;;;0.70;0.67;;;10.00;64.80;;;;;;5068183;28;20452;-78
2024/01/31 11:35:08;;;;;;;0.50;0.10;;;10.00;61.80;;;;;;5069290;28;20951;-77
2024/01/31 11:37:36;;;;;;;0.50;0.10;;;9.90;60.80;;;;;;5074233;28;20530;-77
2024/01/31 11:40:04;;;;;;;0.50;0.13;;;9.90;55.80;;;;;;5063953;28;20952;-77
2024/01/31 11:42:32;;;;;;;0.50;0.10;;;9.80;55.00;;;;;;5072565;28;20483;-77
2024/01/31 11:45:00;;;;;;;0.50;0.10;;;9.80;56.60;;;;;;5067408;28;20457;-75
2024/01/31 11:47:29;;;;;;;0.50;0.10;;;9.80;56.30;;;;;;5063178;28;20985;-76
2024/01/31 11:50:02;;;;;;;0.50;0.30;;;9.90;55.00;;;;;;5064892;28;21027;-77
2024/01/31 11:52:31;;;;;;;0.50;0.10;;;9.90;49.80;;;;;;5062358;28;20449;-77
2024/01/31 11:54:59;;;;;;;0.50;0.10;;;10.00;45.90;;;;;;5072435;28;20446;-77
2024/01/31 11:57:27;;;;;;;0.50;0.10;;;10.00;47.10;;;;;;5069264;28;20491;-76
2024/01/31 11:59:55;;;;;;;0.50;0.10;;;10.10;47.60;;;;;;5066591;28;21011;-77
2024/01/31 12:02:23;;;;;;;0.50;0.10;;;10.10;46.40;;;;;;5069062;28;20808;-77
2024/01/31 12:04:52;;;;;;;0.50;0.10;;;10.20;44.00;;;;;;5076572;28;20452;-77
2024/01/31 12:07:25;;;;;;;0.50;0.10;;;10.20;37.90;;;;;;5079516;28;20484;-77
2024/01/31 12:09:53;;;;;;;0.50;0.10;;;10.20;37.30;;;;;;5079219;28;20507;-77
2024/01/31 12:12:20;;;;;;;1.27;1.27;;;10.10;36.80;;;;;;5096065;28;20439;-76
2024/01/31 12:14:49;;;;;;;0.50;0.17;;;10.10;36.00;;;;;;5089950;28;20450;-76
2024/01/31 12:17:22;;;;;;;0.50;0.10;;;10.10;36.30;;;;;;5090942;28;20538;-77
2024/01/31 12:19:50;;;;;;;0.50;0.10;;;10.20;36.70;;;;;;5094460;28;20516;-76
2024/01/31 12:22:19;;;;;;;0.50;0.10;;;10.20;35.30;;;;;;5088365;28;20489;-76
2024/01/31 12:24:48;;;;;;;0.70;0.43;;;10.30;34.30;;;;;;5085265;28;20481;-76
2024/01/31 12:27:16;;;;;;;0.50;0.10;;;10.30;33.80;;;;;;5094290;28;20496;-76
2024/01/31 12:29:46;;;;;;;0.50;0.10;;;10.30;35.30;;;;;;5089399;28;20500;-77
2024/01/31 12:32:14;;;;;;;0.50;0.10;;;10.40;35.60;;;;;;5086764;28;20444;-77
2024/01/31 12:34:42;;;;;;;0.50;0.20;;;10.50;34.80;;;;;;5074075;28;20714;-77
2024/01/31 12:37:10;;;;;;;0.50;0.20;;;10.50;28.00;;;;;;5071755;28;20476;-76
2024/01/31 12:39:38;;;;;;;0.50;0.20;;;10.40;26.30;;;;;;5074484;28;20444;-76
2024/01/31 12:42:08;;;;;;;0.50;0.10;;;10.80;26.60;;;;;;5073602;28;20481;-77
2024/01/31 12:44:36;;;;;;;0.50;0.10;;;10.30;27.30;;;;;;5073242;28;20493;-78
2024/01/31 12:47:06;;;;;;;0.50;0.10;;;10.30;28.60;;;;;;5076883;28;20615;-77
2024/01/31 12:49:34;;;;;;;0.50;0.10;;;10.40;28.80;;;;;;5090270;28;20845;-76
2024/01/31 12:52:02;;;;;;;0.50;0.10;;;10.40;28.90;;;;;;5091845;28;20447;-76
2024/01/31 12:54:30;;;;;;;0.83;0.70;;;10.50;27.20;;;;;;5092990;28;20445;-76
2024/01/31 12:56:58;;;;;;;0.50;0.20;;;10.50;26.60;;;;;;5085051;28;20483;-77
2024/01/31 12:59:28;;;;;;;0.50;0.10;;;10.50;26.80;;;;;;5069617;28;20445;-77
2024/01/31 13:01:56;;;;;;;0.50;0.20;;;10.40;25.50;;;;;;5076109;28;21001;-78